Plainfield, Georgia
Current Conditions -  °F | °C
As of 2:55 AM on Monday 24 Nov 2014 (Local Time) from KEZM Reporting Station
Overcast Overcast  
Wind Chill: 67°   Ceiling: 800
Heat Index: 67°   Visibility: 7mi
Dew Point: 67°   Wind: 6mph
Humidity: 100%   Direction: 220°SW
Pressure: 29.84"   Gusts: NA
Location:  32.29°N, 83.11°W
Report Text: KEZM 240755Z AUTO 22005KT 7SM BKN008 BKN012 OVC022 19/19 A2984 RMK AO2 T01920192
Loading
Personal Weather Stations






























Interactive Weather Map New forecast layout! Learn more

10-Day Weather Forecast

Advertisements
Track Severe Weather on mobile